sensor_id;sensor_type;location;lat;lon;timestamp;temperature;humidity
65559;DHT22;52203;51.998;5.140;2023-09-19T00:00:49;10.50;118.99
65559;DHT22;52203;51.998;5.140;2023-09-19T00:03:16;10.53;118.99
65559;DHT22;52203;51.998;5.140;2023-09-19T00:05:41;10.57;118.99
65559;DHT22;52203;51.998;5.140;2023-09-19T00:08:10;10.55;118.99
65559;DHT22;52203;51.998;5.140;2023-09-19T00:10:35;10.56;118.99
65559;DHT22;52203;51.998;5.140;2023-09-19T00:13:01;10.56;118.99
65559;DHT22;52203;51.998;5.140;2023-09-19T00:15:30;10.50;118.99
65559;DHT22;52203;51.998;5.140;2023-09-19T00:17:56;10.56;118.99
65559;DHT22;52203;51.998;5.140;2023-09-19T00:20:21;10.59;118.99
65559;DHT22;52203;51.998;5.140;2023-09-19T00:22:48;10.63;118.99
65559;DHT22;52203;51.998;5.140;2023-09-19T00:25:14;10.78;118.99
65559;DHT22;52203;51.998;5.140;2023-09-19T00:27:41;10.83;118.99
65559;DHT22;52203;51.998;5.140;2023-09-19T00:30:11;10.99;118.99
65559;DHT22;52203;51.998;5.140;2023-09-19T00:32:41;10.97;118.99
65559;DHT22;52203;51.998;5.140;2023-09-19T00:35:06;10.92;118.99
65559;DHT22;52203;51.998;5.140;2023-09-19T00:37:34;9.98;118.99
65559;DHT22;52203;51.998;5.140;2023-09-19T00:39:59;9.93;118.99
65559;DHT22;52203;51.998;5.140;2023-09-19T00:42:25;10.09;118.99
65559;DHT22;52203;51.998;5.140;2023-09-19T00:44:51;9.92;118.99
65559;DHT22;52203;51.998;5.140;2023-09-19T00:47:17;9.94;118.99
65559;DHT22;52203;51.998;5.140;2023-09-19T00:49:43;9.94;118.99
65559;DHT22;52203;51.998;5.140;2023-09-19T00:52:10;9.93;118.99
65559;DHT22;52203;51.998;5.140;2023-09-19T00:54:35;9.89;118.99
65559;DHT22;52203;51.998;5.140;2023-09-19T00:57:01;9.97;118.99
65559;DHT22;52203;51.998;5.140;2023-09-19T00:59:27;9.97;118.99
65559;DHT22;52203;51.998;5.140;2023-09-19T01:01:52;10.94;118.99
65559;DHT22;52203;51.998;5.140;2023-09-19T01:04:19;10.94;118.99
65559;DHT22;52203;51.998;5.140;2023-09-19T01:06:45;9.90;118.99
65559;DHT22;52203;51.998;5.140;2023-09-19T01:09:11;9.98;118.99
65559;DHT22;52203;51.998;5.140;2023-09-19T01:11:38;10.77;118.99
65559;DHT22;52203;51.998;5.140;2023-09-19T01:14:18;10.81;118.99
65559;DHT22;52203;51.998;5.140;2023-09-19T01:17:09;10.94;118.99
65559;DHT22;52203;51.998;5.140;2023-09-19T01:29:47;9.88;118.99
65559;DHT22;52203;51.998;5.140;2023-09-19T01:32:14;10.00;118.99
65559;DHT22;52203;51.998;5.140;2023-09-19T01:37:10;10.67;118.99
65559;DHT22;52203;51.998;5.140;2023-09-19T01:39:36;10.65;118.99
65559;DHT22;52203;51.998;5.140;2023-09-19T01:42:14;10.59;118.99
65559;DHT22;52203;51.998;5.140;2023-09-19T01:47:09;10.06;118.99
65559;DHT22;52203;51.998;5.140;2023-09-19T01:49:42;9.84;118.99
65559;DHT22;52203;51.998;5.140;2023-09-19T01:54:46;10.55;118.99
65559;DHT22;52203;51.998;5.140;2023-09-19T01:59:53;10.55;118.99
65559;DHT22;52203;51.998;5.140;2023-09-19T02:02:20;10.54;118.99
65559;DHT22;52203;51.998;5.140;2023-09-19T02:04:47;10.49;118.99
65559;DHT22;52203;51.998;5.140;2023-09-19T02:07:14;10.28;118.99
65559;DHT22;52203;51.998;5.140;2023-09-19T02:09:40;10.19;118.99
65559;DHT22;52203;51.998;5.140;2023-09-19T02:12:08;10.18;118.99
65559;DHT22;52203;51.998;5.140;2023-09-19T02:14:34;9.98;118.99
65559;DHT22;52203;51.998;5.140;2023-09-19T02:17:01;10.07;118.99
65559;DHT22;52203;51.998;5.140;2023-09-19T02:19:28;9.99;118.99
65559;DHT22;52203;51.998;5.140;2023-09-19T02:21:55;10.07;118.99
65559;DHT22;52203;51.998;5.140;2023-09-19T02:24:20;9.91;118.99
65559;DHT22;52203;51.998;5.140;2023-09-19T02:26:45;9.94;118.99
65559;DHT22;52203;51.998;5.140;2023-09-19T02:29:12;9.92;118.99
65559;DHT22;52203;51.998;5.140;2023-09-19T02:31:38;10.01;118.99
65559;DHT22;52203;51.998;5.140;2023-09-19T02:34:04;9.94;118.99
65559;DHT22;52203;51.998;5.140;2023-09-19T02:36:31;9.90;118.99
65559;DHT22;52203;51.998;5.140;2023-09-19T02:38:57;9.91;118.99
65559;DHT22;52203;51.998;5.140;2023-09-19T02:41:22;9.85;118.99
65559;DHT22;52203;51.998;5.140;2023-09-19T02:43:48;9.70;118.99
65559;DHT22;52203;51.998;5.140;2023-09-19T02:46:13;9.72;118.99
65559;DHT22;52203;51.998;5.140;2023-09-19T02:48:39;9.79;118.99
65559;DHT22;52203;51.998;5.140;2023-09-19T02:51:04;9.75;118.99
65559;DHT22;52203;51.998;5.140;2023-09-19T02:53:30;9.71;118.99
65559;DHT22;52203;51.998;5.140;2023-09-19T02:55:57;9.67;118.99
65559;DHT22;52203;51.998;5.140;2023-09-19T02:58:22;9.75;118.99
65559;DHT22;52203;51.998;5.140;2023-09-19T03:00:48;9.67;118.99
65559;DHT22;52203;51.998;5.140;2023-09-19T03:03:17;9.67;118.99
65559;DHT22;52203;51.998;5.140;2023-09-19T03:05:42;9.66;118.99
65559;DHT22;52203;51.998;5.140;2023-09-19T03:08:12;9.66;118.99
65559;DHT22;52203;51.998;5.140;2023-09-19T03:10:40;9.51;118.99
65559;DHT22;52203;51.998;5.140;2023-09-19T03:13:05;9.55;118.99
65559;DHT22;52203;51.998;5.140;2023-09-19T03:15:31;9.61;118.99
65559;DHT22;52203;51.998;5.140;2023-09-19T03:17:56;9.57;118.99
65559;DHT22;52203;51.998;5.140;2023-09-19T03:20:23;9.53;118.99
65559;DHT22;52203;51.998;5.140;2023-09-19T03:22:48;9.54;118.99
65559;DHT22;52203;51.998;5.140;2023-09-19T03:25:14;9.48;118.99
65559;DHT22;52203;51.998;5.140;2023-09-19T03:27:39;9.46;118.99
65559;DHT22;52203;51.998;5.140;2023-09-19T03:30:06;9.47;118.99
65559;DHT22;52203;51.998;5.140;2023-09-19T03:32:34;9.35;118.99
65559;DHT22;52203;51.998;5.140;2023-09-19T03:35:00;9.35;118.99
65559;DHT22;52203;51.998;5.140;2023-09-19T03:37:25;9.51;118.99
65559;DHT22;52203;51.998;5.140;2023-09-19T03:39:51;9.56;118.99
65559;DHT22;52203;51.998;5.140;2023-09-19T03:42:16;9.14;118.99
65559;DHT22;52203;51.998;5.140;2023-09-19T03:44:42;9.21;118.99
65559;DHT22;52203;51.998;5.140;2023-09-19T03:47:08;9.14;118.99
65559;DHT22;52203;51.998;5.140;2023-09-19T03:49:33;9.26;118.99
65559;DHT22;52203;51.998;5.140;2023-09-19T03:51:59;9.12;118.99
65559;DHT22;52203;51.998;5.140;2023-09-19T03:54:24;9.20;118.99
65559;DHT22;52203;51.998;5.140;2023-09-19T03:56:50;9.12;118.99
65559;DHT22;52203;51.998;5.140;2023-09-19T03:59:15;9.16;118.99
65559;DHT22;52203;51.998;5.140;2023-09-19T04:01:41;9.15;118.99
65559;DHT22;52203;51.998;5.140;2023-09-19T04:04:06;9.02;118.99
65559;DHT22;52203;51.998;5.140;2023-09-19T04:06:35;9.07;118.99
65559;DHT22;52203;51.998;5.140;2023-09-19T04:09:00;9.16;118.99
65559;DHT22;52203;51.998;5.140;2023-09-19T04:11:26;9.23;118.99
65559;DHT22;52203;51.998;5.140;2023-09-19T04:13:52;9.22;118.99
65559;DHT22;52203;51.998;5.140;2023-09-19T04:16:17;9.15;118.99
65559;DHT22;52203;51.998;5.140;2023-09-19T04:18:43;9.15;118.99
65559;DHT22;52203;51.998;5.140;2023-09-19T04:21:08;9.02;118.99
65559;DHT22;52203;51.998;5.140;2023-09-19T04:23:34;9.10;118.99
65559;DHT22;52203;51.998;5.140;2023-09-19T04:26:00;9.15;118.99
65559;DHT22;52203;51.998;5.140;2023-09-19T04:28:25;9.11;118.99
65559;DHT22;52203;51.998;5.140;2023-09-19T04:30:53;9.14;118.99
65559;DHT22;52203;51.998;5.140;2023-09-19T04:33:18;9.08;118.99
65559;DHT22;52203;51.998;5.140;2023-09-19T04:35:43;9.05;118.99
65559;DHT22;52203;51.998;5.140;2023-09-19T04:38:09;9.24;118.99
65559;DHT22;52203;51.998;5.140;2023-09-19T04:40:34;9.14;118.99
65559;DHT22;52203;51.998;5.140;2023-09-19T04:43:00;9.06;118.99
65559;DHT22;52203;51.998;5.140;2023-09-19T04:45:26;8.96;118.99
65559;DHT22;52203;51.998;5.140;2023-09-19T04:47:52;9.04;118.99
65559;DHT22;52203;51.998;5.140;2023-09-19T04:50:18;9.05;118.99
65559;DHT22;52203;51.998;5.140;2023-09-19T04:52:44;8.96;118.99
65559;DHT22;52203;51.998;5.140;2023-09-19T04:55:13;8.95;118.99
65559;DHT22;52203;51.998;5.140;2023-09-19T04:57:42;8.98;118.99
65559;DHT22;52203;51.998;5.140;2023-09-19T05:00:08;9.09;118.99
65559;DHT22;52203;51.998;5.140;2023-09-19T05:02:38;9.14;118.99
65559;DHT22;52203;51.998;5.140;2023-09-19T05:05:03;9.15;118.99
65559;DHT22;52203;51.998;5.140;2023-09-19T05:07:30;9.31;118.99
65559;DHT22;52203;51.998;5.140;2023-09-19T05:09:55;9.37;118.99
65559;DHT22;52203;51.998;5.140;2023-09-19T05:12:20;9.62;118.99
65559;DHT22;52203;51.998;5.140;2023-09-19T05:14:46;9.63;118.99
65559;DHT22;52203;51.998;5.140;2023-09-19T05:17:12;9.65;118.99
65559;DHT22;52203;51.998;5.140;2023-09-19T05:19:38;9.63;118.99
65559;DHT22;52203;51.998;5.140;2023-09-19T05:22:03;9.37;118.99
65559;DHT22;52203;51.998;5.140;2023-09-19T05:24:29;9.71;118.99
65559;DHT22;52203;51.998;5.140;2023-09-19T05:26:55;9.77;118.99
65559;DHT22;52203;51.998;5.140;2023-09-19T05:29:22;9.75;118.99
65559;DHT22;52203;51.998;5.140;2023-09-19T05:31:47;9.83;118.99
65559;DHT22;52203;51.998;5.140;2023-09-19T05:34:14;8.91;118.99
65559;DHT22;52203;51.998;5.140;2023-09-19T05:36:40;8.90;118.99
65559;DHT22;52203;51.998;5.140;2023-09-19T05:39:05;8.96;118.99
65559;DHT22;52203;51.998;5.140;2023-09-19T05:41:34;8.96;118.99
65559;DHT22;52203;51.998;5.140;2023-09-19T05:44:02;9.01;118.99
65559;DHT22;52203;51.998;5.140;2023-09-19T05:46:28;9.05;118.99
65559;DHT22;52203;51.998;5.140;2023-09-19T05:48:55;9.03;118.99
65559;DHT22;52203;51.998;5.140;2023-09-19T05:51:21;9.05;118.99
65559;DHT22;52203;51.998;5.140;2023-09-19T05:53:47;9.09;118.99
65559;DHT22;52203;51.998;5.140;2023-09-19T05:56:13;9.08;118.99
65559;DHT22;52203;51.998;5.140;2023-09-19T05:58:39;9.10;118.99
65559;DHT22;52203;51.998;5.140;2023-09-19T06:01:05;9.11;118.99
65559;DHT22;52203;51.998;5.140;2023-09-19T06:03:32;9.17;118.99
65559;DHT22;52203;51.998;5.140;2023-09-19T06:05:57;9.20;118.99
65559;DHT22;52203;51.998;5.140;2023-09-19T06:08:26;9.19;118.99
65559;DHT22;52203;51.998;5.140;2023-09-19T06:11:01;9.22;118.99
65559;DHT22;52203;51.998;5.140;2023-09-19T06:13:29;9.26;118.99
65559;DHT22;52203;51.998;5.140;2023-09-19T06:15:55;9.27;118.99
65559;DHT22;52203;51.998;5.140;2023-09-19T06:18:25;9.34;118.99
65559;DHT22;52203;51.998;5.140;2023-09-19T06:20:52;9.40;118.99
65559;DHT22;52203;51.998;5.140;2023-09-19T06:23:17;9.44;118.99
65559;DHT22;52203;51.998;5.140;2023-09-19T06:25:43;9.47;118.99
65559;DHT22;52203;51.998;5.140;2023-09-19T06:28:08;9.55;118.99
65559;DHT22;52203;51.998;5.140;2023-09-19T06:30:37;9.55;118.99
65559;DHT22;52203;51.998;5.140;2023-09-19T06:33:05;9.57;118.99
65559;DHT22;52203;51.998;5.140;2023-09-19T06:35:36;9.61;118.99
65559;DHT22;52203;51.998;5.140;2023-09-19T06:38:02;9.63;118.99
65559;DHT22;52203;51.998;5.140;2023-09-19T06:40:28;9.72;118.99
65559;DHT22;52203;51.998;5.140;2023-09-19T06:42:53;9.79;118.99
65559;DHT22;52203;51.998;5.140;2023-09-19T06:45:19;9.80;118.99
65559;DHT22;52203;51.998;5.140;2023-09-19T06:47:45;9.84;118.99
65559;DHT22;52203;51.998;5.140;2023-09-19T06:50:11;9.94;118.99
65559;DHT22;52203;51.998;5.140;2023-09-19T06:52:40;10.09;118.99
65559;DHT22;52203;51.998;5.140;2023-09-19T06:55:06;10.07;118.99
65559;DHT22;52203;51.998;5.140;2023-09-19T06:57:32;10.07;118.99
65559;DHT22;52203;51.998;5.140;2023-09-19T06:59:57;10.23;118.99
65559;DHT22;52203;51.998;5.140;2023-09-19T07:02:23;10.33;118.99
65559;DHT22;52203;51.998;5.140;2023-09-19T07:04:48;10.38;118.99
65559;DHT22;52203;51.998;5.140;2023-09-19T07:07:15;10.48;118.99
65559;DHT22;52203;51.998;5.140;2023-09-19T07:09:40;10.56;118.99
65559;DHT22;52203;51.998;5.140;2023-09-19T07:12:07;10.75;118.99
65559;DHT22;52203;51.998;5.140;2023-09-19T07:14:33;10.83;118.99
65559;DHT22;52203;51.998;5.140;2023-09-19T07:16:58;11.03;118.99
65559;DHT22;52203;51.998;5.140;2023-09-19T07:19:25;11.16;118.99
65559;DHT22;52203;51.998;5.140;2023-09-19T07:21:53;11.02;118.99
65559;DHT22;52203;51.998;5.140;2023-09-19T07:24:19;11.32;118.99
65559;DHT22;52203;51.998;5.140;2023-09-19T07:26:45;11.45;118.99
65559;DHT22;52203;51.998;5.140;2023-09-19T07:29:10;11.68;118.99
65559;DHT22;52203;51.998;5.140;2023-09-19T07:31:36;12.02;118.99
65559;DHT22;52203;51.998;5.140;2023-09-19T07:34:01;12.03;118.99
65559;DHT22;52203;51.998;5.140;2023-09-19T07:36:29;11.78;118.99
65559;DHT22;52203;51.998;5.140;2023-09-19T07:38:54;12.27;118.99
65559;DHT22;52203;51.998;5.140;2023-09-19T07:41:20;11.88;118.99
65559;DHT22;52203;51.998;5.140;2023-09-19T07:43:46;12.20;118.99
65559;DHT22;52203;51.998;5.140;2023-09-19T07:46:11;12.10;118.99
65559;DHT22;52203;51.998;5.140;2023-09-19T07:48:37;12.30;118.99
65559;DHT22;52203;51.998;5.140;2023-09-19T07:51:04;12.40;118.99
65559;DHT22;52203;51.998;5.140;2023-09-19T07:53:29;12.59;118.99
65559;DHT22;52203;51.998;5.140;2023-09-19T07:56:02;13.07;118.99
65559;DHT22;52203;51.998;5.140;2023-09-19T07:58:27;13.26;118.99
65559;DHT22;52203;51.998;5.140;2023-09-19T08:00:53;13.52;118.99
65559;DHT22;52203;51.998;5.140;2023-09-19T08:03:19;12.65;118.99
65559;DHT22;52203;51.998;5.140;2023-09-19T08:05:44;12.57;118.99
65559;DHT22;52203;51.998;5.140;2023-09-19T08:08:10;12.06;118.99
65559;DHT22;52203;51.998;5.140;2023-09-19T08:10:39;12.92;118.99
65559;DHT22;52203;51.998;5.140;2023-09-19T08:13:07;13.11;118.99
65559;DHT22;52203;51.998;5.140;2023-09-19T08:15:36;14.06;118.99
65559;DHT22;52203;51.998;5.140;2023-09-19T08:18:10;14.33;118.99
65559;DHT22;52203;51.998;5.140;2023-09-19T08:21:23;13.88;118.99
65559;DHT22;52203;51.998;5.140;2023-09-19T08:24:32;13.86;118.99
65559;DHT22;52203;51.998;5.140;2023-09-19T08:27:52;13.88;118.99
65559;DHT22;52203;51.998;5.140;2023-09-19T08:30:21;14.40;118.99
65559;DHT22;52203;51.998;5.140;2023-09-19T08:36:38;13.70;118.99
65559;DHT22;52203;51.998;5.140;2023-09-19T08:39:04;14.42;118.99
65559;DHT22;52203;51.998;5.140;2023-09-19T08:41:30;14.37;118.99
65559;DHT22;52203;51.998;5.140;2023-09-19T08:43:59;14.79;118.99
65559;DHT22;52203;51.998;5.140;2023-09-19T08:46:30;14.30;118.99
65559;DHT22;52203;51.998;5.140;2023-09-19T08:49:05;15.49;118.99
65559;DHT22;52203;51.998;5.140;2023-09-19T08:51:43;15.25;118.99
65559;DHT22;52203;51.998;5.140;2023-09-19T08:54:21;14.69;118.99
65559;DHT22;52203;51.998;5.140;2023-09-19T08:56:47;13.78;118.99
65559;DHT22;52203;51.998;5.140;2023-09-19T08:59:13;13.66;118.99
65559;DHT22;52203;51.998;5.140;2023-09-19T09:04:50;12.34;118.99
65559;DHT22;52203;51.998;5.140;2023-09-19T09:07:54;12.70;118.99
65559;DHT22;52203;51.998;5.140;2023-09-19T09:10:31;14.55;118.99
65559;DHT22;52203;51.998;5.140;2023-09-19T09:12:57;14.38;118.99
65559;DHT22;52203;51.998;5.140;2023-09-19T09:16:11;15.70;118.99
65559;DHT22;52203;51.998;5.140;2023-09-19T09:22:28;16.24;118.99
65559;DHT22;52203;51.998;5.140;2023-09-19T09:25:50;17.14;118.99
65559;DHT22;52203;51.998;5.140;2023-09-19T09:28:49;16.98;118.99
65559;DHT22;52203;51.998;5.140;2023-09-19T09:31:22;15.22;118.99
65559;DHT22;52203;51.998;5.140;2023-09-19T09:33:54;15.07;118.99
65559;DHT22;52203;51.998;5.140;2023-09-19T09:36:33;15.06;118.99
65559;DHT22;52203;51.998;5.140;2023-09-19T09:38:59;14.91;118.99
65559;DHT22;52203;51.998;5.140;2023-09-19T09:41:41;14.81;118.99
65559;DHT22;52203;51.998;5.140;2023-09-19T09:44:13;15.37;118.99
65559;DHT22;52203;51.998;5.140;2023-09-19T09:46:43;15.54;118.99
65559;DHT22;52203;51.998;5.140;2023-09-19T09:49:15;14.82;118.99
65559;DHT22;52203;51.998;5.140;2023-09-19T09:52:05;14.38;118.99
65559;DHT22;52203;51.998;5.140;2023-09-19T09:55:04;14.52;118.99
65559;DHT22;52203;51.998;5.140;2023-09-19T09:57:30;13.78;118.99
65559;DHT22;52203;51.998;5.140;2023-09-19T09:59:58;14.24;118.99
65559;DHT22;52203;51.998;5.140;2023-09-19T10:02:30;13.82;118.99
65559;DHT22;52203;51.998;5.140;2023-09-19T10:05:17;14.11;118.99
65559;DHT22;52203;51.998;5.140;2023-09-19T10:07:47;13.75;118.99
65559;DHT22;52203;51.998;5.140;2023-09-19T10:10:31;13.85;118.99
65559;DHT22;52203;51.998;5.140;2023-09-19T10:13:19;13.79;118.99
65559;DHT22;52203;51.998;5.140;2023-09-19T10:15:49;13.96;118.99
65559;DHT22;52203;51.998;5.140;2023-09-19T10:18:25;13.90;118.99
65559;DHT22;52203;51.998;5.140;2023-09-19T10:20:53;13.84;118.99
65559;DHT22;52203;51.998;5.140;2023-09-19T10:23:19;14.06;118.99
65559;DHT22;52203;51.998;5.140;2023-09-19T10:25:49;13.90;118.99
65559;DHT22;52203;51.998;5.140;2023-09-19T10:28:54;14.12;118.99
65559;DHT22;52203;51.998;5.140;2023-09-19T10:31:43;14.33;118.99
65559;DHT22;52203;51.998;5.140;2023-09-19T10:34:15;14.10;118.99
65559;DHT22;52203;51.998;5.140;2023-09-19T10:36:45;14.44;118.99
65559;DHT22;52203;51.998;5.140;2023-09-19T10:39:15;14.23;118.99
65559;DHT22;52203;51.998;5.140;2023-09-19T10:41:47;14.15;118.99
65559;DHT22;52203;51.998;5.140;2023-09-19T10:44:22;14.15;118.99
65559;DHT22;52203;51.998;5.140;2023-09-19T10:46:49;14.39;118.99
65559;DHT22;52203;51.998;5.140;2023-09-19T10:49:14;14.06;118.99
65559;DHT22;52203;51.998;5.140;2023-09-19T10:51:41;14.17;118.99
65559;DHT22;52203;51.998;5.140;2023-09-19T10:54:14;14.21;118.99
65559;DHT22;52203;51.998;5.140;2023-09-19T10:56:46;14.54;118.99
65559;DHT22;52203;51.998;5.140;2023-09-19T10:59:13;14.69;118.99
65559;DHT22;52203;51.998;5.140;2023-09-19T11:01:43;14.37;118.99
65559;DHT22;52203;51.998;5.140;2023-09-19T11:04:34;14.54;118.99
65559;DHT22;52203;51.998;5.140;2023-09-19T11:14:54;14.38;118.99
65559;DHT22;52203;51.998;5.140;2023-09-19T11:30:37;13.95;118.99
65559;DHT22;52203;51.998;5.140;2023-09-19T11:43:46;14.21;118.99
65559;DHT22;52203;51.998;5.140;2023-09-19T11:46:12;14.20;118.99
65559;DHT22;52203;51.998;5.140;2023-09-19T11:48:41;14.18;118.99
65559;DHT22;52203;51.998;5.140;2023-09-19T11:51:37;14.04;118.99
65559;DHT22;52203;51.998;5.140;2023-09-19T11:53:58;13.91;118.99
65559;DHT22;52203;51.998;5.140;2023-09-19T11:56:26;13.59;118.99
65559;DHT22;52203;51.998;5.140;2023-09-19T11:58:57;13.79;118.99
65559;DHT22;52203;51.998;5.140;2023-09-19T12:03:54;13.89;118.99
65559;DHT22;52203;51.998;5.140;2023-09-19T12:06:24;13.78;118.99
65559;DHT22;52203;51.998;5.140;2023-09-19T12:08:49;13.75;118.99
65559;DHT22;52203;51.998;5.140;2023-09-19T12:11:16;13.73;118.99
65559;DHT22;52203;51.998;5.140;2023-09-19T12:13:42;13.53;118.99
65559;DHT22;52203;51.998;5.140;2023-09-19T12:16:13;13.45;118.99
65559;DHT22;52203;51.998;5.140;2023-09-19T12:18:40;13.48;118.99
65559;DHT22;52203;51.998;5.140;2023-09-19T12:21:08;13.40;118.99
65559;DHT22;52203;51.998;5.140;2023-09-19T12:26:44;13.44;118.99
65559;DHT22;52203;51.998;5.140;2023-09-19T12:29:14;13.38;118.99
65559;DHT22;52203;51.998;5.140;2023-09-19T12:31:50;13.33;118.99
65559;DHT22;52203;51.998;5.140;2023-09-19T12:34:16;13.09;118.99
65559;DHT22;52203;51.998;5.140;2023-09-19T12:36:42;13.14;118.99
65559;DHT22;52203;51.998;5.140;2023-09-19T12:39:07;13.07;118.99
65559;DHT22;52203;51.998;5.140;2023-09-19T12:41:34;13.11;118.99
65559;DHT22;52203;51.998;5.140;2023-09-19T12:44:00;13.10;118.99
65559;DHT22;52203;51.998;5.140;2023-09-19T12:46:26;13.14;118.99
65559;DHT22;52203;51.998;5.140;2023-09-19T12:51:37;13.15;118.99
65559;DHT22;52203;51.998;5.140;2023-09-19T12:54:03;13.14;118.99
65559;DHT22;52203;51.998;5.140;2023-09-19T12:56:30;13.20;118.99
65559;DHT22;52203;51.998;5.140;2023-09-19T12:59:04;13.12;118.99
65559;DHT22;52203;51.998;5.140;2023-09-19T13:01:32;13.08;118.99
65559;DHT22;52203;51.998;5.140;2023-09-19T13:04:16;13.03;118.99
65559;DHT22;52203;51.998;5.140;2023-09-19T13:06:48;13.01;118.99
65559;DHT22;52203;51.998;5.140;2023-09-19T13:09:14;13.04;118.99
65559;DHT22;52203;51.998;5.140;2023-09-19T13:11:41;12.95;118.99
65559;DHT22;52203;51.998;5.140;2023-09-19T13:14:13;12.90;118.99
65559;DHT22;52203;51.998;5.140;2023-09-19T13:16:57;12.87;118.99
65559;DHT22;52203;51.998;5.140;2023-09-19T13:19:42;12.94;118.99
65559;DHT22;52203;51.998;5.140;2023-09-19T13:22:38;13.05;118.99
65559;DHT22;52203;51.998;5.140;2023-09-19T13:25:08;13.11;118.99
65559;DHT22;52203;51.998;5.140;2023-09-19T13:27:39;13.17;118.99
65559;DHT22;52203;51.998;5.140;2023-09-19T13:30:05;13.41;118.99
65559;DHT22;52203;51.998;5.140;2023-09-19T13:32:31;13.55;118.99
65559;DHT22;52203;51.998;5.140;2023-09-19T13:34:57;13.58;118.99
65559;DHT22;52203;51.998;5.140;2023-09-19T13:37:23;13.66;118.99
65559;DHT22;52203;51.998;5.140;2023-09-19T13:39:49;13.71;118.99
65559;DHT22;52203;51.998;5.140;2023-09-19T13:42:14;13.64;118.99
65559;DHT22;52203;51.998;5.140;2023-09-19T13:44:41;13.53;118.99
65559;DHT22;52203;51.998;5.140;2023-09-19T13:47:07;13.51;118.99
65559;DHT22;52203;51.998;5.140;2023-09-19T13:49:38;13.48;118.99
65559;DHT22;52203;51.998;5.140;2023-09-19T13:52:07;13.47;118.99
65559;DHT22;52203;51.998;5.140;2023-09-19T13:54:33;13.45;118.99
65559;DHT22;52203;51.998;5.140;2023-09-19T13:56:58;13.49;118.99
65559;DHT22;52203;51.998;5.140;2023-09-19T13:59:23;13.39;118.99
65559;DHT22;52203;51.998;5.140;2023-09-19T14:01:49;13.38;118.99
65559;DHT22;52203;51.998;5.140;2023-09-19T14:04:15;13.23;118.99
65559;DHT22;52203;51.998;5.140;2023-09-19T14:06:41;13.22;118.99
65559;DHT22;52203;51.998;5.140;2023-09-19T14:09:07;13.30;118.99
65559;DHT22;52203;51.998;5.140;2023-09-19T14:11:33;13.23;118.99
65559;DHT22;52203;51.998;5.140;2023-09-19T14:14:02;13.20;118.99
65559;DHT22;52203;51.998;5.140;2023-09-19T14:16:27;13.17;118.99
65559;DHT22;52203;51.998;5.140;2023-09-19T14:18:56;13.11;118.99
65559;DHT22;52203;51.998;5.140;2023-09-19T14:21:22;13.12;118.99
65559;DHT22;52203;51.998;5.140;2023-09-19T14:23:48;13.12;118.99
65559;DHT22;52203;51.998;5.140;2023-09-19T14:26:14;13.16;118.99
65559;DHT22;52203;51.998;5.140;2023-09-19T14:28:41;13.16;118.99
65559;DHT22;52203;51.998;5.140;2023-09-19T14:31:09;13.16;118.99
65559;DHT22;52203;51.998;5.140;2023-09-19T14:33:35;13.18;118.99
65559;DHT22;52203;51.998;5.140;2023-09-19T14:36:08;13.15;118.99
65559;DHT22;52203;51.998;5.140;2023-09-19T14:38:34;13.20;118.99
65559;DHT22;52203;51.998;5.140;2023-09-19T14:41:00;13.10;118.99
65559;DHT22;52203;51.998;5.140;2023-09-19T14:43:26;13.11;118.99
65559;DHT22;52203;51.998;5.140;2023-09-19T14:45:52;13.08;118.99
65559;DHT22;52203;51.998;5.140;2023-09-19T14:48:17;13.09;118.99
65559;DHT22;52203;51.998;5.140;2023-09-19T14:50:43;13.04;118.99
65559;DHT22;52203;51.998;5.140;2023-09-19T14:53:09;12.97;118.99
65559;DHT22;52203;51.998;5.140;2023-09-19T14:55:36;12.92;118.99
65559;DHT22;52203;51.998;5.140;2023-09-19T14:58:02;12.95;118.99
65559;DHT22;52203;51.998;5.140;2023-09-19T15:00:29;12.89;118.99
65559;DHT22;52203;51.998;5.140;2023-09-19T15:02:54;12.92;118.99
65559;DHT22;52203;51.998;5.140;2023-09-19T15:05:21;13.01;118.99
65559;DHT22;52203;51.998;5.140;2023-09-19T15:07:47;12.95;118.99
65559;DHT22;52203;51.998;5.140;2023-09-19T15:10:12;12.97;118.99
65559;DHT22;52203;51.998;5.140;2023-09-19T15:12:38;12.94;118.99
65559;DHT22;52203;51.998;5.140;2023-09-19T15:15:05;13.02;118.99
65559;DHT22;52203;51.998;5.140;2023-09-19T15:17:33;12.99;118.99
65559;DHT22;52203;51.998;5.140;2023-09-19T15:19:59;12.92;118.99
65559;DHT22;52203;51.998;5.140;2023-09-19T15:22:24;12.97;118.99
65559;DHT22;52203;51.998;5.140;2023-09-19T15:24:50;12.95;118.99
65559;DHT22;52203;51.998;5.140;2023-09-19T15:27:16;12.95;118.99
65559;DHT22;52203;51.998;5.140;2023-09-19T15:29:45;12.96;118.99
65559;DHT22;52203;51.998;5.140;2023-09-19T15:32:10;12.97;118.99
65559;DHT22;52203;51.998;5.140;2023-09-19T15:34:36;13.00;118.99
65559;DHT22;52203;51.998;5.140;2023-09-19T15:37:01;13.03;118.99
65559;DHT22;52203;51.998;5.140;2023-09-19T15:39:29;13.00;118.99
65559;DHT22;52203;51.998;5.140;2023-09-19T15:41:58;12.93;118.99
65559;DHT22;52203;51.998;5.140;2023-09-19T15:44:23;12.93;118.99
65559;DHT22;52203;51.998;5.140;2023-09-19T15:46:51;12.92;118.99
65559;DHT22;52203;51.998;5.140;2023-09-19T15:49:17;12.93;118.99
65559;DHT22;52203;51.998;5.140;2023-09-19T15:51:43;12.92;118.99
65559;DHT22;52203;51.998;5.140;2023-09-19T15:54:12;12.91;118.99
65559;DHT22;52203;51.998;5.140;2023-09-19T15:56:40;12.91;118.99
65559;DHT22;52203;51.998;5.140;2023-09-19T15:59:06;12.87;118.99
65559;DHT22;52203;51.998;5.140;2023-09-19T16:01:32;12.89;118.99
65559;DHT22;52203;51.998;5.140;2023-09-19T16:03:57;12.92;118.99
65559;DHT22;52203;51.998;5.140;2023-09-19T16:06:26;12.87;118.99
65559;DHT22;52203;51.998;5.140;2023-09-19T16:08:53;12.89;118.99
65559;DHT22;52203;51.998;5.140;2023-09-19T16:11:18;12.91;118.99
65559;DHT22;52203;51.998;5.140;2023-09-19T16:13:46;12.88;118.99
65559;DHT22;52203;51.998;5.140;2023-09-19T16:16:12;12.91;118.99
65559;DHT22;52203;51.998;5.140;2023-09-19T16:18:39;12.94;118.99
65559;DHT22;52203;51.998;5.140;2023-09-19T16:21:05;12.97;118.99
65559;DHT22;52203;51.998;5.140;2023-09-19T16:23:32;12.92;118.99
65559;DHT22;52203;51.998;5.140;2023-09-19T16:28:26;12.91;118.99
65559;DHT22;52203;51.998;5.140;2023-09-19T16:30:52;12.90;118.99
65559;DHT22;52203;51.998;5.140;2023-09-19T16:33:18;12.94;118.99
65559;DHT22;52203;51.998;5.140;2023-09-19T16:35:43;12.84;118.99
65559;DHT22;52203;51.998;5.140;2023-09-19T16:38:18;12.72;118.99
65559;DHT22;52203;51.998;5.140;2023-09-19T16:40:57;12.71;118.99
65559;DHT22;52203;51.998;5.140;2023-09-19T16:43:23;12.64;118.99